sensor_id;sensor_type;location;lat;lon;timestamp;temperature;humidity
44277;DHT22;29973;43.742;1.236;2022-10-17T00:00:36;19.80;99.90
44277;DHT22;29973;43.742;1.236;2022-10-17T00:03:02;19.90;99.90
44277;DHT22;29973;43.742;1.236;2022-10-17T00:05:27;20.00;99.90
44277;DHT22;29973;43.742;1.236;2022-10-17T00:07:53;19.90;99.90
44277;DHT22;29973;43.742;1.236;2022-10-17T00:10:20;19.90;99.90
44277;DHT22;29973;43.742;1.236;2022-10-17T00:12:46;19.80;99.90
44277;DHT22;29973;43.742;1.236;2022-10-17T00:15:16;19.80;99.90
44277;DHT22;29973;43.742;1.236;2022-10-17T00:17:41;20.00;99.90
44277;DHT22;29973;43.742;1.236;2022-10-17T00:20:07;20.00;99.90
44277;DHT22;29973;43.742;1.236;2022-10-17T00:22:33;19.80;99.90
44277;DHT22;29973;43.742;1.236;2022-10-17T00:24:59;19.80;99.90
44277;DHT22;29973;43.742;1.236;2022-10-17T00:27:24;19.80;99.90
44277;DHT22;29973;43.742;1.236;2022-10-17T00:29:51;19.80;99.90
44277;DHT22;29973;43.742;1.236;2022-10-17T00:32:18;19.90;99.90
44277;DHT22;29973;43.742;1.236;2022-10-17T00:34:44;19.90;99.90
44277;DHT22;29973;43.742;1.236;2022-10-17T00:37:10;19.80;99.90
44277;DHT22;29973;43.742;1.236;2022-10-17T00:39:35;20.00;99.90
44277;DHT22;29973;43.742;1.236;2022-10-17T00:42:01;19.90;99.90
44277;DHT22;29973;43.742;1.236;2022-10-17T00:47:01;20.00;99.90
44277;DHT22;29973;43.742;1.236;2022-10-17T00:49:29;20.10;99.90
44277;DHT22;29973;43.742;1.236;2022-10-17T00:51:59;20.20;99.90
44277;DHT22;29973;43.742;1.236;2022-10-17T00:54:32;20.10;99.90
44277;DHT22;29973;43.742;1.236;2022-10-17T00:56:58;20.00;99.90
44277;DHT22;29973;43.742;1.236;2022-10-17T00:59:25;20.10;99.90
44277;DHT22;29973;43.742;1.236;2022-10-17T01:02:02;19.90;99.90
44277;DHT22;29973;43.742;1.236;2022-10-17T01:04:28;20.10;99.90
44277;DHT22;29973;43.742;1.236;2022-10-17T01:06:54;20.10;99.90
44277;DHT22;29973;43.742;1.236;2022-10-17T01:09:20;20.10;99.90
44277;DHT22;29973;43.742;1.236;2022-10-17T01:15:02;20.10;99.90
44277;DHT22;29973;43.742;1.236;2022-10-17T01:17:53;20.10;99.90
44277;DHT22;29973;43.742;1.236;2022-10-17T01:21:06;20.00;99.90
44277;DHT22;29973;43.742;1.236;2022-10-17T01:32:12;20.00;99.90
44277;DHT22;29973;43.742;1.236;2022-10-17T01:34:56;20.00;99.90
44277;DHT22;29973;43.742;1.236;2022-10-17T01:37:36;20.00;99.90
44277;DHT22;29973;43.742;1.236;2022-10-17T01:40:15;20.20;99.90
44277;DHT22;29973;43.742;1.236;2022-10-17T01:43:05;20.20;99.90
44277;DHT22;29973;43.742;1.236;2022-10-17T01:45:39;20.10;99.90
44277;DHT22;29973;43.742;1.236;2022-10-17T01:48:17;20.20;99.90
44277;DHT22;29973;43.742;1.236;2022-10-17T01:50:52;20.20;99.90
44277;DHT22;29973;43.742;1.236;2022-10-17T01:53:27;20.20;99.90
44277;DHT22;29973;43.742;1.236;2022-10-17T01:55:56;20.20;99.90
44277;DHT22;29973;43.742;1.236;2022-10-17T01:58:28;20.30;99.90
44277;DHT22;29973;43.742;1.236;2022-10-17T02:00:59;20.20;99.90
44277;DHT22;29973;43.742;1.236;2022-10-17T02:03:26;20.20;99.90
44277;DHT22;29973;43.742;1.236;2022-10-17T02:05:54;20.30;99.90
44277;DHT22;29973;43.742;1.236;2022-10-17T02:08:44;20.30;99.90
44277;DHT22;29973;43.742;1.236;2022-10-17T02:11:23;20.40;99.90
44277;DHT22;29973;43.742;1.236;2022-10-17T02:16:45;20.10;99.90
44277;DHT22;29973;43.742;1.236;2022-10-17T02:19:45;20.20;99.90
44277;DHT22;29973;43.742;1.236;2022-10-17T02:22:24;20.20;99.90
44277;DHT22;29973;43.742;1.236;2022-10-17T02:30:08;20.40;99.90
44277;DHT22;29973;43.742;1.236;2022-10-17T02:32:52;20.40;99.90
44277;DHT22;29973;43.742;1.236;2022-10-17T02:35:19;20.30;99.90
44277;DHT22;29973;43.742;1.236;2022-10-17T02:37:47;20.30;99.90
44277;DHT22;29973;43.742;1.236;2022-10-17T02:40:16;20.30;99.90
44277;DHT22;29973;43.742;1.236;2022-10-17T02:42:44;20.40;99.90
44277;DHT22;29973;43.742;1.236;2022-10-17T02:45:11;20.40;99.90
44277;DHT22;29973;43.742;1.236;2022-10-17T02:48:43;20.40;99.90
44277;DHT22;29973;43.742;1.236;2022-10-17T02:53:28;20.50;99.90
44277;DHT22;29973;43.742;1.236;2022-10-17T02:55:58;20.40;99.90
44277;DHT22;29973;43.742;1.236;2022-10-17T02:58:31;20.40;99.90
44277;DHT22;29973;43.742;1.236;2022-10-17T03:00:58;20.50;99.90
44277;DHT22;29973;43.742;1.236;2022-10-17T03:03:27;20.50;99.90
44277;DHT22;29973;43.742;1.236;2022-10-17T03:05:53;20.40;99.90
44277;DHT22;29973;43.742;1.236;2022-10-17T03:08:20;20.40;99.90
44277;DHT22;29973;43.742;1.236;2022-10-17T03:10:46;20.50;99.90
44277;DHT22;29973;43.742;1.236;2022-10-17T03:13:13;20.60;99.90
44277;DHT22;29973;43.742;1.236;2022-10-17T03:15:38;20.50;99.90
44277;DHT22;29973;43.742;1.236;2022-10-17T03:18:04;20.50;99.90
44277;DHT22;29973;43.742;1.236;2022-10-17T03:20:30;20.40;99.90
44277;DHT22;29973;43.742;1.236;2022-10-17T03:22:56;20.40;99.90
44277;DHT22;29973;43.742;1.236;2022-10-17T03:25:21;20.40;99.90
44277;DHT22;29973;43.742;1.236;2022-10-17T03:27:47;20.30;99.90
44277;DHT22;29973;43.742;1.236;2022-10-17T03:30:14;20.30;99.90
44277;DHT22;29973;43.742;1.236;2022-10-17T03:32:40;20.20;99.90
44277;DHT22;29973;43.742;1.236;2022-10-17T03:35:06;20.20;99.90
44277;DHT22;29973;43.742;1.236;2022-10-17T03:37:31;20.20;99.90
44277;DHT22;29973;43.742;1.236;2022-10-17T03:39:57;20.10;99.90
44277;DHT22;29973;43.742;1.236;2022-10-17T03:42:23;20.10;99.90
44277;DHT22;29973;43.742;1.236;2022-10-17T03:44:48;20.20;99.90
44277;DHT22;29973;43.742;1.236;2022-10-17T03:47:14;20.30;99.90
44277;DHT22;29973;43.742;1.236;2022-10-17T03:49:40;20.20;99.90
44277;DHT22;29973;43.742;1.236;2022-10-17T03:52:10;20.20;99.90
44277;DHT22;29973;43.742;1.236;2022-10-17T03:54:36;20.20;99.90
44277;DHT22;29973;43.742;1.236;2022-10-17T03:57:02;20.20;99.90
44277;DHT22;29973;43.742;1.236;2022-10-17T03:59:27;20.20;99.90
44277;DHT22;29973;43.742;1.236;2022-10-17T04:01:53;20.10;99.90
44277;DHT22;29973;43.742;1.236;2022-10-17T04:04:19;20.30;99.90
44277;DHT22;29973;43.742;1.236;2022-10-17T04:06:44;20.20;99.90
44277;DHT22;29973;43.742;1.236;2022-10-17T04:09:10;20.30;99.90
44277;DHT22;29973;43.742;1.236;2022-10-17T04:11:36;20.20;99.90
44277;DHT22;29973;43.742;1.236;2022-10-17T04:14:01;20.10;99.90
44277;DHT22;29973;43.742;1.236;2022-10-17T04:16:27;20.00;99.90
44277;DHT22;29973;43.742;1.236;2022-10-17T04:18:57;19.90;99.90
44277;DHT22;29973;43.742;1.236;2022-10-17T04:21:25;20.00;99.90
44277;DHT22;29973;43.742;1.236;2022-10-17T04:23:56;20.00;99.90
44277;DHT22;29973;43.742;1.236;2022-10-17T04:26:21;19.90;99.90
44277;DHT22;29973;43.742;1.236;2022-10-17T04:28:48;19.70;99.90
44277;DHT22;29973;43.742;1.236;2022-10-17T04:31:14;20.00;99.90
44277;DHT22;29973;43.742;1.236;2022-10-17T04:33:40;20.00;99.90
44277;DHT22;29973;43.742;1.236;2022-10-17T04:36:10;20.10;99.90
44277;DHT22;29973;43.742;1.236;2022-10-17T04:38:36;20.10;99.90
44277;DHT22;29973;43.742;1.236;2022-10-17T04:41:05;19.90;99.90
44277;DHT22;29973;43.742;1.236;2022-10-17T04:43:33;19.80;99.90
44277;DHT22;29973;43.742;1.236;2022-10-17T04:46:05;19.80;99.90
44277;DHT22;29973;43.742;1.236;2022-10-17T04:48:31;19.80;99.90
44277;DHT22;29973;43.742;1.236;2022-10-17T04:50:58;19.80;99.90
44277;DHT22;29973;43.742;1.236;2022-10-17T04:53:24;19.90;99.90
44277;DHT22;29973;43.742;1.236;2022-10-17T04:55:51;19.90;99.90
44277;DHT22;29973;43.742;1.236;2022-10-17T04:58:17;19.80;99.90
44277;DHT22;29973;43.742;1.236;2022-10-17T05:00:43;19.70;99.90
44277;DHT22;29973;43.742;1.236;2022-10-17T05:03:09;19.70;99.90
44277;DHT22;29973;43.742;1.236;2022-10-17T05:05:39;19.90;99.90
44277;DHT22;29973;43.742;1.236;2022-10-17T05:08:06;20.10;99.90
44277;DHT22;29973;43.742;1.236;2022-10-17T05:10:45;20.10;99.90
44277;DHT22;29973;43.742;1.236;2022-10-17T05:13:11;20.00;99.90
44277;DHT22;29973;43.742;1.236;2022-10-17T05:15:37;20.00;99.90
44277;DHT22;29973;43.742;1.236;2022-10-17T05:18:04;20.00;99.90
44277;DHT22;29973;43.742;1.236;2022-10-17T05:20:31;20.00;99.90
44277;DHT22;29973;43.742;1.236;2022-10-17T05:23:00;20.10;99.90
44277;DHT22;29973;43.742;1.236;2022-10-17T05:25:26;20.20;99.90
44277;DHT22;29973;43.742;1.236;2022-10-17T05:27:52;20.30;99.90
44277;DHT22;29973;43.742;1.236;2022-10-17T05:30:18;20.10;99.90
44277;DHT22;29973;43.742;1.236;2022-10-17T05:32:44;20.10;99.90
44277;DHT22;29973;43.742;1.236;2022-10-17T05:35:09;20.20;99.90
44277;DHT22;29973;43.742;1.236;2022-10-17T05:37:35;20.10;99.90
44277;DHT22;29973;43.742;1.236;2022-10-17T05:40:01;20.00;99.90
44277;DHT22;29973;43.742;1.236;2022-10-17T05:42:27;20.00;99.90
44277;DHT22;29973;43.742;1.236;2022-10-17T05:44:52;20.00;99.90
44277;DHT22;29973;43.742;1.236;2022-10-17T05:47:18;20.00;99.90
44277;DHT22;29973;43.742;1.236;2022-10-17T05:49:44;20.00;99.90
44277;DHT22;29973;43.742;1.236;2022-10-17T05:52:10;20.00;99.90
44277;DHT22;29973;43.742;1.236;2022-10-17T05:54:35;20.10;99.90
44277;DHT22;29973;43.742;1.236;2022-10-17T05:57:01;20.00;99.90
44277;DHT22;29973;43.742;1.236;2022-10-17T05:59:27;19.90;99.90
44277;DHT22;29973;43.742;1.236;2022-10-17T06:01:53;20.00;99.90
44277;DHT22;29973;43.742;1.236;2022-10-17T06:04:19;20.10;99.90
44277;DHT22;29973;43.742;1.236;2022-10-17T06:06:45;20.10;99.90
44277;DHT22;29973;43.742;1.236;2022-10-17T06:09:11;20.00;99.90
44277;DHT22;29973;43.742;1.236;2022-10-17T06:11:37;20.00;99.90
44277;DHT22;29973;43.742;1.236;2022-10-17T06:14:03;20.00;99.90
44277;DHT22;29973;43.742;1.236;2022-10-17T06:16:28;19.90;99.90
44277;DHT22;29973;43.742;1.236;2022-10-17T06:18:54;20.00;99.90
44277;DHT22;29973;43.742;1.236;2022-10-17T06:21:25;20.00;99.90
44277;DHT22;29973;43.742;1.236;2022-10-17T06:23:51;19.90;99.90
44277;DHT22;29973;43.742;1.236;2022-10-17T06:26:18;19.80;99.90
44277;DHT22;29973;43.742;1.236;2022-10-17T06:28:44;19.80;99.90
44277;DHT22;29973;43.742;1.236;2022-10-17T06:31:12;19.80;99.90
44277;DHT22;29973;43.742;1.236;2022-10-17T06:33:38;19.80;99.90
44277;DHT22;29973;43.742;1.236;2022-10-17T06:36:05;19.80;99.90
44277;DHT22;29973;43.742;1.236;2022-10-17T06:38:33;19.80;99.90
44277;DHT22;29973;43.742;1.236;2022-10-17T06:41:06;19.70;99.90
44277;DHT22;29973;43.742;1.236;2022-10-17T06:43:36;19.80;99.90
44277;DHT22;29973;43.742;1.236;2022-10-17T06:46:03;19.90;99.90
44277;DHT22;29973;43.742;1.236;2022-10-17T06:48:28;19.90;99.90
44277;DHT22;29973;43.742;1.236;2022-10-17T06:50:58;19.90;99.90
44277;DHT22;29973;43.742;1.236;2022-10-17T06:53:27;20.00;99.90
44277;DHT22;29973;43.742;1.236;2022-10-17T06:55:53;20.10;99.90
44277;DHT22;29973;43.742;1.236;2022-10-17T06:58:20;20.20;99.90
44277;DHT22;29973;43.742;1.236;2022-10-17T07:00:46;20.30;99.90
44277;DHT22;29973;43.742;1.236;2022-10-17T07:03:11;20.40;99.90
44277;DHT22;29973;43.742;1.236;2022-10-17T07:05:37;20.50;99.90
44277;DHT22;29973;43.742;1.236;2022-10-17T07:08:06;20.50;99.90
44277;DHT22;29973;43.742;1.236;2022-10-17T07:10:32;20.50;99.90
44277;DHT22;29973;43.742;1.236;2022-10-17T07:13:02;20.50;99.90
44277;DHT22;29973;43.742;1.236;2022-10-17T07:15:28;20.50;99.90
44277;DHT22;29973;43.742;1.236;2022-10-17T07:17:54;20.50;99.90
44277;DHT22;29973;43.742;1.236;2022-10-17T07:20:20;20.50;99.90
44277;DHT22;29973;43.742;1.236;2022-10-17T07:22:45;20.50;99.90
44277;DHT22;29973;43.742;1.236;2022-10-17T07:25:11;20.50;99.90
44277;DHT22;29973;43.742;1.236;2022-10-17T07:27:36;20.60;99.90
44277;DHT22;29973;43.742;1.236;2022-10-17T07:30:02;20.50;99.90
44277;DHT22;29973;43.742;1.236;2022-10-17T07:32:28;20.50;99.90
44277;DHT22;29973;43.742;1.236;2022-10-17T07:34:54;20.50;99.90
44277;DHT22;29973;43.742;1.236;2022-10-17T07:37:19;20.60;99.90
44277;DHT22;29973;43.742;1.236;2022-10-17T07:39:45;20.60;99.90
44277;DHT22;29973;43.742;1.236;2022-10-17T07:42:11;20.70;99.90
44277;DHT22;29973;43.742;1.236;2022-10-17T07:44:38;20.70;99.90
44277;DHT22;29973;43.742;1.236;2022-10-17T07:47:04;20.90;99.90
44277;DHT22;29973;43.742;1.236;2022-10-17T07:49:30;21.00;99.90
44277;DHT22;29973;43.742;1.236;2022-10-17T07:51:56;21.10;99.90
44277;DHT22;29973;43.742;1.236;2022-10-17T07:54:21;21.30;99.90
44277;DHT22;29973;43.742;1.236;2022-10-17T07:56:47;21.40;99.90
44277;DHT22;29973;43.742;1.236;2022-10-17T07:59:16;21.30;99.90
44277;DHT22;29973;43.742;1.236;2022-10-17T08:01:42;21.40;99.90
44277;DHT22;29973;43.742;1.236;2022-10-17T08:04:08;21.50;99.90
44277;DHT22;29973;43.742;1.236;2022-10-17T08:06:34;21.50;99.90
44277;DHT22;29973;43.742;1.236;2022-10-17T08:08:59;21.70;99.90
44277;DHT22;29973;43.742;1.236;2022-10-17T08:11:26;21.90;99.90
44277;DHT22;29973;43.742;1.236;2022-10-17T08:13:52;22.00;99.90
44277;DHT22;29973;43.742;1.236;2022-10-17T08:16:18;22.10;99.90
44277;DHT22;29973;43.742;1.236;2022-10-17T08:18:43;22.30;99.90
44277;DHT22;29973;43.742;1.236;2022-10-17T08:21:11;22.50;99.90
44277;DHT22;29973;43.742;1.236;2022-10-17T08:23:37;22.80;99.90
44277;DHT22;29973;43.742;1.236;2022-10-17T08:26:05;22.90;99.90
44277;DHT22;29973;43.742;1.236;2022-10-17T08:28:35;22.90;99.90
44277;DHT22;29973;43.742;1.236;2022-10-17T08:31:07;22.90;99.90
44277;DHT22;29973;43.742;1.236;2022-10-17T08:33:33;22.80;99.90
44277;DHT22;29973;43.742;1.236;2022-10-17T08:36:00;22.90;99.90
44277;DHT22;29973;43.742;1.236;2022-10-17T08:38:28;22.90;99.90
44277;DHT22;29973;43.742;1.236;2022-10-17T08:40:58;22.80;99.90
44277;DHT22;29973;43.742;1.236;2022-10-17T08:46:00;22.50;99.90
44277;DHT22;29973;43.742;1.236;2022-10-17T08:48:30;22.30;99.90
44277;DHT22;29973;43.742;1.236;2022-10-17T08:51:02;22.30;99.90
44277;DHT22;29973;43.742;1.236;2022-10-17T08:53:33;22.40;99.90
44277;DHT22;29973;43.742;1.236;2022-10-17T08:56:04;22.40;99.90
44277;DHT22;29973;43.742;1.236;2022-10-17T08:58:34;22.50;99.90
44277;DHT22;29973;43.742;1.236;2022-10-17T09:03:37;22.60;99.90
44277;DHT22;29973;43.742;1.236;2022-10-17T09:06:26;22.50;99.90
44277;DHT22;29973;43.742;1.236;2022-10-17T09:10:03;22.80;99.90
44277;DHT22;29973;43.742;1.236;2022-10-17T09:12:14;22.60;99.90
44277;DHT22;29973;43.742;1.236;2022-10-17T09:22:57;22.50;99.90
44277;DHT22;29973;43.742;1.236;2022-10-17T09:25:25;22.50;99.90
44277;DHT22;29973;43.742;1.236;2022-10-17T09:27:57;22.50;99.90
44277;DHT22;29973;43.742;1.236;2022-10-17T09:30:43;22.40;99.90
44277;DHT22;29973;43.742;1.236;2022-10-17T09:33:11;22.50;99.90
44277;DHT22;29973;43.742;1.236;2022-10-17T09:35:38;22.40;99.90
44277;DHT22;29973;43.742;1.236;2022-10-17T09:38:11;22.50;99.90
44277;DHT22;29973;43.742;1.236;2022-10-17T09:40:39;22.50;99.90
44277;DHT22;29973;43.742;1.236;2022-10-17T09:43:07;22.50;99.90
44277;DHT22;29973;43.742;1.236;2022-10-17T09:45:53;22.50;99.90
44277;DHT22;29973;43.742;1.236;2022-10-17T09:50:55;22.50;99.90
44277;DHT22;29973;43.742;1.236;2022-10-17T09:53:33;22.50;99.90
44277;DHT22;29973;43.742;1.236;2022-10-17T09:56:14;22.60;99.90
44277;DHT22;29973;43.742;1.236;2022-10-17T10:01:22;22.50;99.90
44277;DHT22;29973;43.742;1.236;2022-10-17T10:04:11;22.40;99.90
44277;DHT22;29973;43.742;1.236;2022-10-17T10:06:39;22.30;99.90
44277;DHT22;29973;43.742;1.236;2022-10-17T10:09:06;22.40;99.90
44277;DHT22;29973;43.742;1.236;2022-10-17T10:11:56;22.30;99.90
44277;DHT22;29973;43.742;1.236;2022-10-17T10:14:31;22.40;99.90
44277;DHT22;29973;43.742;1.236;2022-10-17T10:17:02;22.40;99.90
44277;DHT22;29973;43.742;1.236;2022-10-17T10:19:34;22.40;99.90
44277;DHT22;29973;43.742;1.236;2022-10-17T10:22:04;22.30;99.90
44277;DHT22;29973;43.742;1.236;2022-10-17T10:24:30;22.20;99.90
44277;DHT22;29973;43.742;1.236;2022-10-17T10:27:01;22.10;99.90
44277;DHT22;29973;43.742;1.236;2022-10-17T10:29:31;22.10;99.90
44277;DHT22;29973;43.742;1.236;2022-10-17T10:32:18;22.00;99.90
44277;DHT22;29973;43.742;1.236;2022-10-17T10:34:56;21.90;99.90
44277;DHT22;29973;43.742;1.236;2022-10-17T10:37:32;21.90;99.90
44277;DHT22;29973;43.742;1.236;2022-10-17T10:40:03;21.90;99.90
44277;DHT22;29973;43.742;1.236;2022-10-17T10:42:38;22.00;99.90
44277;DHT22;29973;43.742;1.236;2022-10-17T10:47:51;22.10;99.90
44277;DHT22;29973;43.742;1.236;2022-10-17T10:50:35;22.10;99.90
44277;DHT22;29973;43.742;1.236;2022-10-17T10:56:03;22.30;99.90
44277;DHT22;29973;43.742;1.236;2022-10-17T11:01:08;22.00;99.90
44277;DHT22;29973;43.742;1.236;2022-10-17T11:06:49;21.90;99.90
44277;DHT22;29973;43.742;1.236;2022-10-17T11:12:27;21.60;99.90
44277;DHT22;29973;43.742;1.236;2022-10-17T11:19:58;21.40;99.90
44277;DHT22;29973;43.742;1.236;2022-10-17T11:22:35;21.60;99.90
44277;DHT22;29973;43.742;1.236;2022-10-17T11:27:41;21.90;99.90
44277;DHT22;29973;43.742;1.236;2022-10-17T11:30:12;22.20;99.90
44277;DHT22;29973;43.742;1.236;2022-10-17T11:32:42;22.20;99.90
44277;DHT22;29973;43.742;1.236;2022-10-17T11:35:37;22.30;99.90
44277;DHT22;29973;43.742;1.236;2022-10-17T11:40:44;23.00;99.90
44277;DHT22;29973;43.742;1.236;2022-10-17T11:43:39;23.30;99.90
44277;DHT22;29973;43.742;1.236;2022-10-17T11:46:15;24.00;99.90
44277;DHT22;29973;43.742;1.236;2022-10-17T11:51:29;24.80;99.90
44277;DHT22;29973;43.742;1.236;2022-10-17T11:54:28;24.40;99.90
44277;DHT22;29973;43.742;1.236;2022-10-17T11:59:47;28.30;99.90
44277;DHT22;29973;43.742;1.236;2022-10-17T12:02:34;28.20;99.90
44277;DHT22;29973;43.742;1.236;2022-10-17T12:05:09;28.60;99.90
44277;DHT22;29973;43.742;1.236;2022-10-17T12:07:42;28.50;99.90
44277;DHT22;29973;43.742;1.236;2022-10-17T12:10:38;28.90;99.90
44277;DHT22;29973;43.742;1.236;2022-10-17T12:18:46;29.90;99.90
44277;DHT22;29973;43.742;1.236;2022-10-17T12:21:12;29.40;99.90
44277;DHT22;29973;43.742;1.236;2022-10-17T12:23:38;29.40;99.90
44277;DHT22;29973;43.742;1.236;2022-10-17T12:26:07;28.90;99.90
44277;DHT22;29973;43.742;1.236;2022-10-17T12:34:03;29.90;99.90
44277;DHT22;29973;43.742;1.236;2022-10-17T12:49:23;30.10;99.90
44277;DHT22;29973;43.742;1.236;2022-10-17T12:55:12;31.40;99.90
44277;DHT22;29973;43.742;1.236;2022-10-17T12:57:54;30.50;99.90
44277;DHT22;29973;43.742;1.236;2022-10-17T13:00:35;31.70;99.90
44277;DHT22;29973;43.742;1.236;2022-10-17T13:03:17;31.50;99.90
44277;DHT22;29973;43.742;1.236;2022-10-17T13:05:58;31.30;99.90
44277;DHT22;29973;43.742;1.236;2022-10-17T13:08:28;32.60;99.90
44277;DHT22;29973;43.742;1.236;2022-10-17T13:10:55;31.80;99.90
44277;DHT22;29973;43.742;1.236;2022-10-17T13:13:38;31.80;99.90
44277;DHT22;29973;43.742;1.236;2022-10-17T13:16:06;30.70;99.90
44277;DHT22;29973;43.742;1.236;2022-10-17T13:18:32;30.30;99.90
44277;DHT22;29973;43.742;1.236;2022-10-17T13:21:01;30.60;99.90
44277;DHT22;29973;43.742;1.236;2022-10-17T13:23:34;30.30;99.90
44277;DHT22;29973;43.742;1.236;2022-10-17T13:28:40;30.90;99.90
44277;DHT22;29973;43.742;1.236;2022-10-17T13:31:20;31.60;99.90
44277;DHT22;29973;43.742;1.236;2022-10-17T13:33:55;31.40;99.90
44277;DHT22;29973;43.742;1.236;2022-10-17T13:36:21;31.70;99.90
44277;DHT22;29973;43.742;1.236;2022-10-17T13:38:47;31.20;99.60
44277;DHT22;29973;43.742;1.236;2022-10-17T13:41:14;30.70;99.90
44277;DHT22;29973;43.742;1.236;2022-10-17T13:43:41;30.80;99.90
44277;DHT22;29973;43.742;1.236;2022-10-17T13:46:07;32.00;99.00
44277;DHT22;29973;43.742;1.236;2022-10-17T13:48:41;30.90;98.70
44277;DHT22;29973;43.742;1.236;2022-10-17T13:51:08;31.30;99.30
44277;DHT22;29973;43.742;1.236;2022-10-17T13:53:36;31.40;98.50
44277;DHT22;29973;43.742;1.236;2022-10-17T13:58:56;30.40;98.90
44277;DHT22;29973;43.742;1.236;2022-10-17T14:01:24;31.00;99.20
44277;DHT22;29973;43.742;1.236;2022-10-17T14:03:50;30.70;99.00
44277;DHT22;29973;43.742;1.236;2022-10-17T14:06:19;30.10;99.60
44277;DHT22;29973;43.742;1.236;2022-10-17T14:09:39;30.70;99.10
44277;DHT22;29973;43.742;1.236;2022-10-17T14:12:00;30.20;99.70
44277;DHT22;29973;43.742;1.236;2022-10-17T14:14:27;30.70;98.20
44277;DHT22;29973;43.742;1.236;2022-10-17T14:16:53;31.00;97.70
44277;DHT22;29973;43.742;1.236;2022-10-17T14:19:27;30.70;98.50
44277;DHT22;29973;43.742;1.236;2022-10-17T14:21:58;30.70;98.30
44277;DHT22;29973;43.742;1.236;2022-10-17T14:24:38;30.50;97.80
44277;DHT22;29973;43.742;1.236;2022-10-17T14:27:35;30.10;98.60
44277;DHT22;29973;43.742;1.236;2022-10-17T14:32:50;31.80;97.60
44277;DHT22;29973;43.742;1.236;2022-10-17T14:35:19;31.80;96.50
44277;DHT22;29973;43.742;1.236;2022-10-17T14:37:47;30.90;97.60
44277;DHT22;29973;43.742;1.236;2022-10-17T14:42:41;30.70;97.90
44277;DHT22;29973;43.742;1.236;2022-10-17T14:45:11;31.50;96.50
44277;DHT22;29973;43.742;1.236;2022-10-17T14:47:38;29.90;97.80
44277;DHT22;29973;43.742;1.236;2022-10-17T14:50:06;30.20;97.50
44277;DHT22;29973;43.742;1.236;2022-10-17T14:52:32;30.40;97.80
44277;DHT22;29973;43.742;1.236;2022-10-17T14:55:10;29.50;99.00
44277;DHT22;29973;43.742;1.236;2022-10-17T14:57:43;29.50;98.90
44277;DHT22;29973;43.742;1.236;2022-10-17T15:00:14;29.40;98.90
44277;DHT22;29973;43.742;1.236;2022-10-17T15:02:40;29.80;98.50
44277;DHT22;29973;43.742;1.236;2022-10-17T15:05:06;29.50;98.90
44277;DHT22;29973;43.742;1.236;2022-10-17T15:07:32;29.50;99.00
44277;DHT22;29973;43.742;1.236;2022-10-17T15:09:57;30.30;98.00
44277;DHT22;29973;43.742;1.236;2022-10-17T15:12:24;30.20;98.00
44277;DHT22;29973;43.742;1.236;2022-10-17T15:14:51;29.80;97.90
44277;DHT22;29973;43.742;1.236;2022-10-17T15:17:19;30.00;98.20
44277;DHT22;29973;43.742;1.236;2022-10-17T15:19:46;29.60;98.40
44277;DHT22;29973;43.742;1.236;2022-10-17T15:22:12;30.20;98.40
44277;DHT22;29973;43.742;1.236;2022-10-17T15:24:39;29.40;99.20
44277;DHT22;29973;43.742;1.236;2022-10-17T15:27:15;29.10;99.10
44277;DHT22;29973;43.742;1.236;2022-10-17T15:29:41;29.00;99.50
44277;DHT22;29973;43.742;1.236;2022-10-17T15:32:06;28.70;99.90
44277;DHT22;29973;43.742;1.236;2022-10-17T15:34:32;27.20;99.90
44277;DHT22;29973;43.742;1.236;2022-10-17T15:36:58;25.60;99.90
44277;DHT22;29973;43.742;1.236;2022-10-17T15:39:24;25.30;99.90
44277;DHT22;29973;43.742;1.236;2022-10-17T15:41:49;24.90;99.90
44277;DHT22;29973;43.742;1.236;2022-10-17T15:44:15;24.60;99.90
44277;DHT22;29973;43.742;1.236;2022-10-17T15:46:41;24.60;99.90
44277;DHT22;29973;43.742;1.236;2022-10-17T15:49:11;24.60;99.90
44277;DHT22;29973;43.742;1.236;2022-10-17T15:51:37;24.60;99.90
44277;DHT22;29973;43.742;1.236;2022-10-17T15:54:03;24.40;99.90
44277;DHT22;29973;43.742;1.236;2022-10-17T15:56:35;24.30;99.90
44277;DHT22;29973;43.742;1.236;2022-10-17T15:59:03;25.90;99.90
44277;DHT22;29973;43.742;1.236;2022-10-17T16:01:30;26.50;99.90
44277;DHT22;29973;43.742;1.236;2022-10-17T16:03:57;27.40;99.90
44277;DHT22;29973;43.742;1.236;2022-10-17T16:06:24;26.30;99.90
44277;DHT22;29973;43.742;1.236;2022-10-17T16:08:50;25.20;99.90
44277;DHT22;29973;43.742;1.236;2022-10-17T16:13:56;24.70;99.90
44277;DHT22;29973;43.742;1.236;2022-10-17T16:16:22;24.70;99.90
44277;DHT22;29973;43.742;1.236;2022-10-17T16:18:48;24.50;99.90
44277;DHT22;29973;43.742;1.236;2022-10-17T16:21:15;24.20;99.90
44277;DHT22;29973;43.742;1.236;2022-10-17T16:23:41;24.10;99.90
44277;DHT22;29973;43.742;1.236;2022-10-17T16:26:07;23.80;99.90
44277;DHT22;29973;43.742;1.236;2022-10-17T16:28:34;23.60;99.90
44277;DHT22;29973;43.742;1.236;2022-10-17T16:31:00;23.50;99.90
44277;DHT22;29973;43.742;1.236;2022-10-17T16:33:26;23.40;99.90
44277;DHT22;29973;43.742;1.236;2022-10-17T16:35:52;23.30;99.90
44277;DHT22;29973;43.742;1.236;2022-10-17T16:38:18;23.20;99.90
44277;DHT22;29973;43.742;1.236;2022-10-17T16:40:44;23.00;99.90
44277;DHT22;29973;43.742;1.236;2022-10-17T16:43:12;23.00;99.90
44277;DHT22;29973;43.742;1.236;2022-10-17T16:45:38;22.90;99.90
44277;DHT22;29973;43.742;1.236;2022-10-17T16:48:05;22.90;99.90
44277;DHT22;29973;43.742;1.236;2022-10-17T16:50:30;22.70;99.90
44277;DHT22;29973;43.742;1.236;2022-10-17T16:53:00;22.50;99.90
44277;DHT22;29973;43.742;1.236;2022-10-17T16:55:28;22.50;99.90
44277;DHT22;29973;43.742;1.236;2022-10-17T16:57:54;22.40;99.90
44277;DHT22;29973;43.742;1.236;2022-10-17T17:00:20;22.30;99.90
44277;DHT22;29973;43.742;1.236;2022-10-17T17:02:48;22.20;99.90
44277;DHT22;29973;43.742;1.236;2022-10-17T17:05:14;22.20;99.90
44277;DHT22;29973;43.742;1.236;2022-10-17T17:07:40;22.10;99.90
44277;DHT22;29973;43.742;1.236;2022-10-17T17:10:07;22.10;99.90
44277;DHT22;29973;43.742;1.236;2022-10-17T17:12:34;21.90;99.90
44277;DHT22;29973;43.742;1.236;2022-10-17T17:15:00;22.00;99.90
44277;DHT22;29973;43.742;1.236;2022-10-17T17:17:26;21.90;99.90
44277;DHT22;29973;43.742;1.236;2022-10-17T17:19:52;21.90;99.90
44277;DHT22;29973;43.742;1.236;2022-10-17T17:22:18;21.80;99.90
44277;DHT22;29973;43.742;1.236;2022-10-17T17:24:43;21.70;99.90
44277;DHT22;29973;43.742;1.236;2022-10-17T17:27:09;21.70;99.90
44277;DHT22;29973;43.742;1.236;2022-10-17T17:29:35;21.60;99.90
44277;DHT22;29973;43.742;1.236;2022-10-17T17:32:03;21.60;99.90
44277;DHT22;29973;43.742;1.236;2022-10-17T17:34:33;21.60;99.90
44277;DHT22;29973;43.742;1.236;2022-10-17T17:37:13;21.50;99.90
44277;DHT22;29973;43.742;1.236;2022-10-17T17:39:42;21.50;99.90